Time;durP1;ratioP1;P1;durP2;ratioP2;P2;SDS_P1;SDS_P2;PMS_P1;PMS_P2;Temp;Humidity;BMP_temperature;BMP_pressure;BME280_temperature;BME280_humidity;BME280_pressure;Samples;Min_cycle;Max_cycle;Signal;HPM_P1;HPM_P2
2022/11/05 00:10:37;;;;;;;15.90;11.02;;;9.20;99.90;;;;;;5010287;28;20102;-69
2022/11/05 00:18:33;;;;;;;21.83;14.27;;;9.00;99.90;;;;;;5017737;28;20068;-69
2022/11/05 00:20:59;;;;;;;18.88;13.32;;;9.00;99.90;;;;;;5006217;28;20057;-69
2022/11/05 00:26:10;;;;;;;22.40;14.18;;;8.90;99.90;;;;;;5003019;28;20183;-69
2022/11/05 00:28:37;;;;;;;18.67;12.77;;;8.90;99.90;;;;;;5002881;28;20095;-69
2022/11/05 00:31:05;;;;;;;21.13;12.73;;;8.80;99.90;;;;;;5011961;28;20099;-69
2022/11/05 00:33:31;;;;;;;18.48;13.00;;;8.80;99.90;;;;;;5023121;28;20482;-69
2022/11/05 00:35:57;;;;;;;15.65;11.98;;;8.80;99.90;;;;;;5021645;28;20087;-70
2022/11/05 00:38:23;;;;;;;18.65;12.50;;;8.80;99.90;;;;;;5015996;28;20891;-70
2022/11/05 00:40:49;;;;;;;17.17;11.65;;;8.80;99.90;;;;;;5033846;28;20025;-69
2022/11/05 00:45:59;;;;;;;20.23;12.48;;;8.80;99.90;;;;;;5009914;28;20045;-69
2022/11/05 00:51:08;;;;;;;16.70;11.25;;;8.80;99.90;;;;;;5009663;28;20198;-69
2022/11/05 00:53:34;;;;;;;14.50;10.93;;;8.80;99.90;;;;;;5010033;28;20154;-69
2022/11/05 00:56:00;;;;;;;17.45;11.85;;;8.80;99.90;;;;;;5012311;28;20033;-69
2022/11/05 00:58:28;;;;;;;19.45;12.52;;;8.80;99.90;;;;;;5006894;28;20083;-69
2022/11/05 01:00:55;;;;;;;18.80;13.07;;;8.80;99.90;;;;;;5006389;28;20029;-69
2022/11/05 01:03:23;;;;;;;15.75;12.02;;;8.80;99.90;;;;;;5009597;28;20056;-69
2022/11/05 01:05:51;;;;;;;21.10;13.88;;;8.80;99.90;;;;;;5010133;28;20037;-69
2022/11/05 01:08:19;;;;;;;22.38;13.52;;;8.80;99.90;;;;;;5020514;28;20400;-69
2022/11/05 01:10:52;;;;;;;19.40;13.73;;;8.80;99.90;;;;;;5001991;28;20058;-70
2022/11/05 01:13:21;;;;;;;21.65;14.13;;;8.80;99.90;;;;;;5012937;28;20512;-70
2022/11/05 01:15:49;;;;;;;17.98;12.48;;;8.80;99.90;;;;;;5013171;28;20289;-70
2022/11/05 01:18:15;;;;;;;22.13;13.10;;;8.70;99.90;;;;;;5017301;28;20120;-69
2022/11/05 01:20:41;;;;;;;18.10;12.48;;;8.80;99.90;;;;;;5011012;28;20022;-70
2022/11/05 01:23:07;;;;;;;14.52;11.15;;;8.70;99.90;;;;;;5016969;28;20099;-69
2022/11/05 01:25:33;;;;;;;15.68;11.48;;;8.70;99.90;;;;;;5022089;28;20029;-69
2022/11/05 01:27:59;;;;;;;16.90;11.52;;;8.70;99.90;;;;;;5027439;28;20119;-69
2022/11/05 01:30:25;;;;;;;16.88;11.57;;;8.70;99.90;;;;;;5014962;28;20475;-70
2022/11/05 01:32:51;;;;;;;18.33;11.48;;;8.70;99.90;;;;;;5014841;28;20045;-69
2022/11/05 01:35:17;;;;;;;16.85;12.15;;;8.60;99.90;;;;;;5021386;28;20020;-69
2022/11/05 01:37:43;;;;;;;13.70;10.60;;;8.70;99.90;;;;;;5013512;28;20025;-69
2022/11/05 01:40:18;;;;;;;17.65;11.80;;;8.60;99.90;;;;;;5021584;28;20302;-69
2022/11/05 01:42:45;;;;;;;16.05;11.93;;;8.70;99.90;;;;;;5011578;28;20025;-69
2022/11/05 01:45:23;;;;;;;16.65;11.63;;;8.70;99.90;;;;;;5024447;28;20038;-69
2022/11/05 01:48:01;;;;;;;15.55;10.63;;;8.70;99.90;;;;;;5012965;28;20025;-69
2022/11/05 01:50:41;;;;;;;14.98;11.07;;;8.70;99.90;;;;;;5012268;28;20049;-69
2022/11/05 01:53:14;;;;;;;16.50;11.48;;;8.70;99.90;;;;;;5019484;28;20037;-69
2022/11/05 01:55:48;;;;;;;21.25;12.30;;;8.70;99.90;;;;;;5011052;28;20025;-69
2022/11/05 01:58:19;;;;;;;18.33;13.27;;;8.70;99.90;;;;;;5010150;28;20045;-69
2022/11/05 02:00:45;;;;;;;20.20;13.88;;;8.80;99.90;;;;;;5013302;28;20342;-70
2022/11/05 02:03:13;;;;;;;18.40;12.45;;;8.80;99.90;;;;;;5014385;28;20393;-69
2022/11/05 02:05:40;;;;;;;17.17;12.40;;;8.70;99.90;;;;;;5015992;28;20370;-69
2022/11/05 02:08:11;;;;;;;19.63;12.23;;;8.70;99.90;;;;;;5008359;28;20510;-69
2022/11/05 02:10:37;;;;;;;17.13;11.90;;;8.70;99.90;;;;;;5015690;28;20033;-69
2022/11/05 02:13:03;;;;;;;15.85;11.50;;;8.70;99.90;;;;;;5011792;28;20029;-69
2022/11/05 02:15:47;;;;;;;15.45;11.45;;;8.70;99.90;;;;;;5015634;28;20058;-69
2022/11/05 02:18:23;;;;;;;20.52;13.23;;;8.70;99.90;;;;;;5007766;28;20595;-69
2022/11/05 02:21:14;;;;;;;17.38;12.02;;;8.70;99.90;;;;;;5017291;28;20038;-70
2022/11/05 02:24:30;;;;;;;18.45;12.27;;;8.70;99.90;;;;;;5010399;28;20478;-69
2022/11/05 02:27:20;;;;;;;20.05;11.93;;;8.70;99.90;;;;;;5021159;28;20069;-69
2022/11/05 02:30:17;;;;;;;21.30;13.35;;;8.70;99.90;;;;;;5013954;28;20640;-69
2022/11/05 02:32:51;;;;;;;20.77;12.98;;;8.70;99.90;;;;;;5020826;28;20041;-69
2022/11/05 02:35:17;;;;;;;19.42;13.30;;;8.70;99.90;;;;;;5016459;28;20104;-69
2022/11/05 02:37:53;;;;;;;19.17;12.55;;;8.70;99.90;;;;;;5024939;28;20108;-70
2022/11/05 02:40:48;;;;;;;16.60;11.93;;;8.70;99.90;;;;;;5013608;28;20034;-70
2022/11/05 02:43:46;;;;;;;18.48;12.50;;;8.70;99.90;;;;;;5015493;28;20036;-69
2022/11/05 02:46:37;;;;;;;18.13;11.85;;;8.80;99.90;;;;;;5011794;28;20268;-70
2022/11/05 02:49:12;;;;;;;14.50;10.85;;;8.80;99.90;;;;;;5003918;28;20042;-70
2022/11/05 02:51:58;;;;;;;16.70;10.88;;;8.80;99.90;;;;;;5006170;28;20041;-69
2022/11/05 02:54:31;;;;;;;14.23;9.70;;;8.80;99.90;;;;;;5013338;28;20029;-69
2022/11/05 02:56:58;;;;;;;;;;;8.80;99.90;;;;;;5007362;28;20060;-69
2022/11/05 02:59:23;;;;;;;21.55;11.18;;;8.80;99.90;;;;;;5016808;28;19920;-69
2022/11/05 03:01:50;;;;;;;16.42;11.07;;;8.80;99.90;;;;;;5020654;28;20030;-69
2022/11/05 03:04:20;;;;;;;18.25;11.93;;;8.80;99.90;;;;;;5011417;28;20525;-69
2022/11/05 03:06:45;;;;;;;18.38;12.38;;;8.80;99.90;;;;;;5012022;28;20030;-69
2022/11/05 03:09:27;;;;;;;18.25;12.05;;;8.80;99.90;;;;;;5031969;28;20103;-69
2022/11/05 03:12:01;;;;;;;19.50;12.20;;;8.80;99.90;;;;;;5022776;28;20029;-69
2022/11/05 03:14:53;;;;;;;16.00;11.32;;;8.80;99.90;;;;;;5011005;28;20041;-69
2022/11/05 03:17:36;;;;;;;18.33;12.35;;;8.70;99.90;;;;;;5020912;28;20037;-69
2022/11/05 03:20:40;;;;;;;22.63;13.13;;;8.80;99.90;;;;;;5027302;28;20025;-69
2022/11/05 03:23:21;;;;;;;;;;;8.80;99.90;;;;;;5026310;28;20037;-69
2022/11/05 03:25:52;;;;;;;18.92;11.98;;;8.70;99.90;;;;;;5018591;28;19916;-69
2022/11/05 03:28:23;;;;;;;21.75;13.10;;;8.70;99.90;;;;;;5024121;28;20057;-69
2022/11/05 03:30:51;;;;;;;20.00;13.43;;;8.70;99.90;;;;;;5016791;28;20052;-69
2022/11/05 03:33:23;;;;;;;22.05;12.93;;;8.70;99.90;;;;;;5016263;28;20060;-69
2022/11/05 03:35:56;;;;;;;25.83;13.82;;;8.80;99.90;;;;;;5016205;28;20026;-69
2022/11/05 03:38:35;;;;;;;21.92;13.95;;;8.80;99.90;;;;;;5019369;28;20024;-69
2022/11/05 03:41:06;;;;;;;23.88;14.40;;;8.90;99.90;;;;;;5021688;28;20033;-69
2022/11/05 03:43:36;;;;;;;25.00;14.30;;;8.90;99.90;;;;;;5026624;28;20044;-69
2022/11/05 03:46:38;;;;;;;22.50;13.77;;;8.90;99.90;;;;;;5012035;28;20033;-69
2022/11/05 03:49:06;;;;;;;18.60;12.38;;;8.90;99.90;;;;;;5021844;28;20042;-69
2022/11/05 03:51:47;;;;;;;17.73;12.65;;;8.90;99.90;;;;;;5018637;28;20579;-70
2022/11/05 03:54:13;;;;;;;22.23;13.43;;;8.90;99.90;;;;;;5012436;28;20030;-69
2022/11/05 03:57:03;;;;;;;20.00;12.50;;;8.90;99.90;;;;;;5018037;28;20462;-70
2022/11/05 03:59:37;;;;;;;21.05;13.95;;;8.90;99.90;;;;;;5010775;28;20022;-70
2022/11/05 04:02:02;;;;;;;21.60;13.48;;;9.00;99.90;;;;;;5009580;28;20025;-69
2022/11/05 04:04:28;;;;;;;20.27;12.80;;;8.90;99.90;;;;;;5012136;28;20030;-69
2022/11/05 04:15:06;;;;;;;17.13;11.70;;;8.70;99.90;;;;;;5037041;28;20075;-69
2022/11/05 04:17:32;;;;;;;17.95;12.50;;;8.60;99.90;;;;;;5024194;28;20026;-69
2022/11/05 04:25:26;;;;;;;25.88;14.02;;;8.60;99.90;;;;;;5016551;28;20025;-69
2022/11/05 04:27:56;;;;;;;21.05;14.50;;;8.60;99.90;;;;;;5019070;28;20033;-70
2022/11/05 04:30:22;;;;;;;20.73;13.23;;;8.60;99.90;;;;;;5023731;28;20169;-69
2022/11/05 04:33:01;;;;;;;25.40;14.77;;;8.60;99.90;;;;;;5011225;28;20647;-69
2022/11/05 04:35:29;;;;;;;29.42;17.08;;;8.70;99.90;;;;;;5012522;28;20100;-69
2022/11/05 04:37:55;;;;;;;24.33;14.68;;;8.60;99.90;;;;;;5019553;28;20041;-69
2022/11/05 04:40:21;;;;;;;23.92;14.63;;;8.60;99.90;;;;;;5019018;28;20022;-69
2022/11/05 04:42:46;;;;;;;22.10;13.82;;;8.60;99.90;;;;;;5010953;28;20072;-69
2022/11/05 04:45:12;;;;;;;21.45;13.35;;;8.60;99.90;;;;;;5014185;28;20099;-69
2022/11/05 04:47:38;;;;;;;27.52;13.65;;;8.50;99.90;;;;;;5021611;28;20033;-69
2022/11/05 04:50:03;;;;;;;23.42;15.27;;;8.50;99.90;;;;;;5019988;28;20599;-70
2022/11/05 04:52:29;;;;;;;24.45;14.70;;;8.50;99.90;;;;;;5015679;28;20036;-70
2022/11/05 04:54:55;;;;;;;23.70;13.63;;;8.50;99.90;;;;;;5023807;28;20028;-69
2022/11/05 04:57:20;;;;;;;24.88;13.43;;;8.40;99.90;;;;;;5007993;28;20541;-69
2022/11/05 04:59:50;;;;;;;21.55;14.32;;;8.40;99.90;;;;;;5016197;28;20470;-69
2022/11/05 05:02:16;;;;;;;20.25;13.88;;;8.40;99.90;;;;;;5008797;28;20032;-69
2022/11/05 05:04:42;;;;;;;23.83;14.60;;;8.30;99.90;;;;;;5000787;28;20033;-69
2022/11/05 05:07:07;;;;;;;23.63;14.05;;;8.30;99.90;;;;;;5020045;28;20482;-70
2022/11/05 05:09:33;;;;;;;23.10;14.52;;;8.30;99.90;;;;;;5011408;28;20112;-70
2022/11/05 05:11:58;;;;;;;19.98;14.40;;;8.30;99.90;;;;;;5016723;28;20033;-70
2022/11/05 05:14:24;;;;;;;23.70;14.52;;;8.30;99.90;;;;;;5020316;28;20040;-69
2022/11/05 05:16:50;;;;;;;29.20;16.70;;;8.30;99.90;;;;;;5013320;28;20021;-70
2022/11/05 05:19:15;;;;;;;23.90;15.40;;;8.30;99.90;;;;;;5022030;28;20535;-69
2022/11/05 05:21:41;;;;;;;24.25;15.02;;;8.30;99.90;;;;;;5012191;28;20112;-70
2022/11/05 05:24:12;;;;;;;20.83;13.52;;;8.30;99.90;;;;;;5017000;28;20029;-69
2022/11/05 05:26:41;;;;;;;18.55;12.57;;;8.20;99.90;;;;;;5022647;28;20046;-69
2022/11/05 05:29:08;;;;;;;21.55;13.70;;;8.10;99.90;;;;;;5024577;28;20154;-69
2022/11/05 05:31:34;;;;;;;19.00;13.15;;;8.10;99.90;;;;;;5028945;28;20501;-69
2022/11/05 05:34:00;;;;;;;20.88;12.00;;;8.10;99.90;;;;;;5019094;28;20033;-69
2022/11/05 05:36:26;;;;;;;21.13;12.93;;;8.10;99.90;;;;;;5018541;28;20155;-69
2022/11/05 05:38:52;;;;;;;18.25;12.55;;;8.10;99.90;;;;;;5013289;28;20038;-69
2022/11/05 05:41:17;;;;;;;19.40;12.85;;;8.00;99.90;;;;;;5018465;28;20025;-69
2022/11/05 05:43:43;;;;;;;21.65;12.07;;;8.00;99.90;;;;;;5018147;28;20056;-69
2022/11/05 05:46:11;;;;;;;17.33;12.05;;;8.00;99.90;;;;;;5017982;28;20457;-69
2022/11/05 05:48:37;;;;;;;22.00;13.35;;;7.90;99.90;;;;;;5021525;28;20030;-69
2022/11/05 05:51:08;;;;;;;19.95;12.57;;;7.90;99.90;;;;;;5013231;28;20054;-69
2022/11/05 05:53:34;;;;;;;21.60;13.10;;;7.90;99.90;;;;;;5010156;28;20411;-69
2022/11/05 05:56:00;;;;;;;24.15;13.85;;;7.90;99.90;;;;;;5009960;28;20025;-69
2022/11/05 05:58:34;;;;;;;22.02;12.73;;;7.80;99.90;;;;;;5017301;28;20026;-69
2022/11/05 06:01:02;;;;;;;18.77;12.25;;;7.80;99.90;;;;;;5016007;28;20446;-69
2022/11/05 06:03:28;;;;;;;19.63;12.57;;;7.80;99.90;;;;;;5018332;28;20120;-69
2022/11/05 06:06:02;;;;;;;17.63;12.00;;;7.80;99.90;;;;;;5003059;28;20625;-69
2022/11/05 06:08:28;;;;;;;19.77;11.95;;;7.70;99.90;;;;;;5019597;28;20469;-69
2022/11/05 06:10:54;;;;;;;21.80;12.75;;;7.70;99.90;;;;;;5012613;28;20037;-69
2022/11/05 06:13:19;;;;;;;23.23;13.55;;;7.70;99.90;;;;;;5021290;28;20036;-69
2022/11/05 06:15:45;;;;;;;20.92;11.85;;;7.60;99.90;;;;;;5017246;28;20105;-69
2022/11/05 06:18:11;;;;;;;20.75;12.95;;;7.70;99.90;;;;;;5025940;28;20045;-69
2022/11/05 06:20:36;;;;;;;22.67;13.48;;;7.60;99.90;;;;;;5007560;28;20478;-70
2022/11/05 06:23:02;;;;;;;20.98;12.95;;;7.50;99.90;;;;;;5010874;28;20040;-70
2022/11/05 06:25:28;;;;;;;21.63;13.10;;;7.50;99.90;;;;;;5013431;28;20034;-70
2022/11/05 06:27:53;;;;;;;18.98;12.55;;;7.40;99.90;;;;;;5013495;28;20021;-70
2022/11/05 06:30:20;;;;;;;23.23;13.80;;;7.40;99.90;;;;;;5022975;28;20046;-70
2022/11/05 06:32:46;;;;;;;22.15;14.25;;;7.30;99.90;;;;;;5008159;28;20061;-70
2022/11/05 06:35:12;;;;;;;26.85;15.77;;;7.30;99.90;;;;;;5011585;28;20413;-70
2022/11/05 06:37:38;;;;;;;32.05;20.15;;;7.30;99.90;;;;;;5013879;28;20034;-69
2022/11/05 06:40:05;;;;;;;28.67;17.85;;;7.30;99.90;;;;;;5016176;28;20041;-70
2022/11/05 06:42:31;;;;;;;24.83;17.23;;;7.30;99.90;;;;;;5018482;28;20084;-70
2022/11/05 06:44:56;;;;;;;20.35;14.68;;;7.20;99.90;;;;;;5019772;28;20033;-70
2022/11/05 06:47:22;;;;;;;20.27;13.93;;;7.20;99.90;;;;;;5020438;28;20041;-70
2022/11/05 06:49:48;;;;;;;16.65;12.07;;;7.10;99.90;;;;;;5024093;28;20072;-70
2022/11/05 06:52:15;;;;;;;17.55;12.48;;;7.10;99.90;;;;;;5022842;28;20608;-70
2022/11/05 06:54:41;;;;;;;17.35;11.45;;;7.10;99.90;;;;;;5014715;28;20038;-69
2022/11/05 06:57:11;;;;;;;27.77;14.82;;;7.10;99.90;;;;;;5025114;28;20036;-70
2022/11/05 06:59:38;;;;;;;31.33;18.02;;;7.10;99.90;;;;;;5030673;28;20025;-70
2022/11/05 07:02:05;;;;;;;25.52;15.63;;;7.10;99.90;;;;;;5023589;28;20040;-70
2022/11/05 07:04:31;;;;;;;24.58;14.85;;;7.00;99.90;;;;;;5015533;28;20333;-70
2022/11/05 07:07:00;;;;;;;26.80;15.70;;;7.00;99.90;;;;;;5014934;28;20045;-69
2022/11/05 07:09:27;;;;;;;27.52;16.58;;;6.90;99.90;;;;;;5024080;28;20049;-70
2022/11/05 07:11:52;;;;;;;25.42;14.93;;;7.00;99.90;;;;;;5029827;28;20837;-69
2022/11/05 07:14:18;;;;;;;25.63;16.73;;;6.90;99.90;;;;;;5010184;28;20120;-70
2022/11/05 07:16:43;;;;;;;26.13;16.88;;;6.90;99.90;;;;;;5019564;28;20033;-69
2022/11/05 07:19:09;;;;;;;28.52;16.92;;;6.90;99.90;;;;;;5010335;28;20539;-69
2022/11/05 07:21:35;;;;;;;25.77;16.02;;;7.00;99.90;;;;;;5027691;28;20056;-70
2022/11/05 07:24:01;;;;;;;26.25;16.60;;;7.00;99.90;;;;;;5028115;28;20048;-70
2022/11/05 07:26:26;;;;;;;26.73;16.42;;;7.00;99.90;;;;;;5027366;28;20504;-70
2022/11/05 07:28:54;;;;;;;24.15;16.10;;;7.00;99.90;;;;;;5023441;28;20051;-71
2022/11/05 07:31:19;;;;;;;24.88;16.13;;;7.00;99.90;;;;;;5017916;28;20053;-70
2022/11/05 07:33:45;;;;;;;22.40;14.50;;;7.00;99.90;;;;;;5009151;28;20052;-70
2022/11/05 07:36:10;;;;;;;22.05;14.68;;;7.00;99.90;;;;;;5024270;28;20025;-70
2022/11/05 07:38:36;;;;;;;21.65;14.65;;;7.00;99.90;;;;;;5023329;28;20404;-70
2022/11/05 07:41:02;;;;;;;26.27;15.18;;;7.00;99.90;;;;;;5014273;28;20057;-69
2022/11/05 07:43:28;;;;;;;21.30;14.27;;;7.00;99.90;;;;;;5026486;28;20470;-70
2022/11/05 07:45:54;;;;;;;22.30;14.65;;;7.10;99.90;;;;;;5019777;28;20060;-70
2022/11/05 07:48:19;;;;;;;20.08;13.80;;;7.00;99.90;;;;;;5021468;28;20069;-69
2022/11/05 07:50:45;;;;;;;21.63;13.63;;;7.00;99.90;;;;;;5034567;28;20029;-70
2022/11/05 07:53:13;;;;;;;21.30;14.00;;;7.10;99.90;;;;;;5021727;28;20032;-69
2022/11/05 07:55:44;;;;;;;21.50;14.73;;;7.10;99.90;;;;;;5025149;28;20017;-70
2022/11/05 07:58:11;;;;;;;22.75;14.65;;;7.10;99.90;;;;;;5012442;28;20038;-69
2022/11/05 08:00:36;;;;;;;24.13;15.68;;;7.20;99.90;;;;;;5034959;28;20026;-70
2022/11/05 08:03:13;;;;;;;23.98;15.65;;;7.30;99.90;;;;;;5015163;28;20049;-70
2022/11/05 08:05:43;;;;;;;22.75;15.10;;;7.30;99.90;;;;;;5008081;28;20105;-70
2022/11/05 08:08:09;;;;;;;24.77;16.27;;;7.40;99.90;;;;;;5017226;28;20049;-74
2022/11/05 08:10:36;;;;;;;25.67;16.90;;;7.40;99.90;;;;;;5006975;28;20030;-74
2022/11/05 08:13:01;;;;;;;26.83;17.13;;;7.60;99.90;;;;;;5007545;28;20029;-74
2022/11/05 08:15:27;;;;;;;25.35;16.23;;;7.70;99.90;;;;;;5015438;28;20393;-74
2022/11/05 08:18:30;;;;;;;25.10;15.73;;;7.80;99.90;;;;;;5018983;28;20033;-74
2022/11/05 08:20:58;;;;;;;24.63;14.68;;;8.00;99.90;;;;;;5023829;28;20061;-74
2022/11/05 08:23:24;;;;;;;24.13;14.82;;;8.10;99.90;;;;;;5007623;28;20246;-75
2022/11/05 08:25:50;;;;;;;23.83;15.38;;;8.20;99.90;;;;;;5010173;28;21216;-74
2022/11/05 08:28:15;;;;;;;22.08;14.30;;;8.30;99.90;;;;;;5010491;28;20077;-75
2022/11/05 08:30:41;;;;;;;31.45;19.88;;;8.50;99.90;;;;;;5006386;28;20057;-74
2022/11/05 08:33:09;;;;;;;30.20;18.55;;;8.60;99.90;;;;;;5006886;28;20038;-74
2022/11/05 08:35:36;;;;;;;28.90;16.88;;;8.70;99.90;;;;;;5009373;28;20442;-74
2022/11/05 08:38:04;;;;;;;24.60;14.77;;;8.80;99.90;;;;;;5012866;28;20030;-74
2022/11/05 08:40:33;;;;;;;29.90;16.67;;;8.90;99.90;;;;;;5007909;28;20528;-75
2022/11/05 08:43:01;;;;;;;36.20;21.58;;;9.00;99.90;;;;;;5001755;28;20119;-75
2022/11/05 08:45:28;;;;;;;33.10;22.27;;;9.10;99.90;;;;;;5005263;28;20417;-75
2022/11/05 08:48:09;;;;;;;56.92;37.55;;;9.10;99.90;;;;;;5007537;28;20083;-75
2022/11/05 08:50:36;;;;;;;19.67;12.18;;;9.20;99.90;;;;;;5006642;28;20072;-73
2022/11/05 08:53:02;;;;;;;17.92;10.75;;;;;;;;;;4998469;28;20440;-75
2022/11/05 08:55:28;;;;;;;16.65;9.35;;;9.30;99.90;;;;;;5007639;28;20045;-74
2022/11/05 08:57:59;;;;;;;14.32;9.50;;;9.30;99.90;;;;;;5008945;28;20035;-74
2022/11/05 09:00:27;;;;;;;13.50;8.60;;;9.40;99.90;;;;;;5004469;28;20030;-74
2022/11/05 09:02:53;;;;;;;13.48;8.20;;;9.50;99.90;;;;;;5009192;28;20030;-75
2022/11/05 09:05:18;;;;;;;13.00;7.80;;;9.50;99.90;;;;;;5023630;28;20627;-75
2022/11/05 09:07:45;;;;;;;15.32;8.00;;;9.60;99.90;;;;;;5013467;28;20404;-74
2022/11/05 09:10:11;;;;;;;12.38;6.85;;;;;;;;;;5018316;28;20496;-74
2022/11/05 09:12:37;;;;;;;13.35;7.13;;;9.80;99.90;;;;;;4998277;28;20398;-74
2022/11/05 09:15:03;;;;;;;16.35;7.53;;;9.80;99.90;;;;;;4999765;28;20033;-74
2022/11/05 09:17:29;;;;;;;15.15;7.93;;;9.90;99.90;;;;;;4997206;28;20029;-74
2022/11/05 09:19:55;;;;;;;12.27;7.75;;;9.90;99.90;;;;;;5005147;28;20037;-73
2022/11/05 09:22:20;;;;;;;14.45;8.20;;;9.90;99.90;;;;;;4992207;28;20088;-74
2022/11/05 09:24:46;;;;;;;16.65;9.65;;;10.00;99.90;;;;;;4990578;28;20130;-74
2022/11/05 09:27:13;;;;;;;13.02;7.32;;;10.00;99.90;;;;;;5002192;28;20333;-74
2022/11/05 09:29:39;;;;;;;37.38;23.17;;;10.00;99.90;;;;;;5005594;28;20140;-74
2022/11/05 09:32:05;;;;;;;18.77;12.65;;;10.00;99.90;;;;;;5009712;28;20082;-74
2022/11/05 09:34:31;;;;;;;14.60;8.82;;;10.00;99.90;;;;;;4993567;28;20128;-74
2022/11/05 09:36:58;;;;;;;12.48;7.10;;;10.00;99.90;;;;;;5004417;28;20251;-74
2022/11/05 09:39:24;;;;;;;14.13;7.88;;;10.00;99.90;;;;;;4996932;28;20026;-74
2022/11/05 09:42:18;;;;;;;52.17;28.05;;;10.00;99.90;;;;;;5004827;28;20426;-74
2022/11/05 09:44:52;;;;;;;28.17;15.63;;;10.10;99.90;;;;;;4991102;28;20080;-74
2022/11/05 09:47:31;;;;;;;20.38;10.93;;;10.10;99.90;;;;;;5004522;28;20038;-74
2022/11/05 09:49:59;;;;;;;14.82;7.07;;;10.20;99.90;;;;;;4988915;28;20069;-74
2022/11/05 09:52:28;;;;;;;12.20;6.47;;;;;;;;;;5005459;28;20030;-74
2022/11/05 09:54:55;;;;;;;13.07;6.03;;;;;;;;;;4998179;28;20034;-74
2022/11/05 09:57:23;;;;;;;11.77;6.32;;;;;;;;;;4997475;28;20434;-74
2022/11/05 10:00:01;;;;;;;14.52;6.55;;;;;;;;;;5002551;28;20052;-74
2022/11/05 10:02:33;;;;;;;13.60;6.18;;;;;;;;;;4990203;28;20026;-74
2022/11/05 10:05:02;;;;;;;15.52;7.60;;;;;;;;;;4995669;28;20040;-74
2022/11/05 10:07:30;;;;;;;14.80;7.10;;;;;;;;;;5003054;28;20666;-74
2022/11/05 10:09:58;;;;;;;16.02;7.10;;;;;;;;;;4992546;28;20040;-74
2022/11/05 10:12:34;;;;;;;13.27;7.47;;;;;;;;;;5000014;28;20036;-74
2022/11/05 10:15:08;;;;;;;22.27;13.65;;;10.60;99.90;;;;;;5000529;28;20087;-74
2022/11/05 10:17:37;;;;;;;25.25;16.27;;;10.60;99.90;;;;;;5001491;28;20068;-74
2022/11/05 10:20:23;;;;;;;16.30;8.13;;;10.60;99.90;;;;;;5003925;28;20504;-74
2022/11/05 10:22:55;;;;;;;15.63;7.90;;;10.70;99.90;;;;;;4987652;28;20045;-75
2022/11/05 10:25:26;;;;;;;12.13;7.60;;;10.70;99.90;;;;;;4996720;28;20030;-75
2022/11/05 10:27:54;;;;;;;17.88;11.52;;;10.80;99.90;;;;;;4996122;28;21027;-75
2022/11/05 10:30:20;;;;;;;13.95;7.50;;;10.90;99.90;;;;;;5007930;28;20041;-75
2022/11/05 10:32:47;;;;;;;9.35;6.05;;;10.90;99.90;;;;;;5001240;28;20149;-74
2022/11/05 10:35:17;;;;;;;14.70;7.10;;;11.00;99.90;;;;;;4997076;28;20037;-73
2022/11/05 10:37:46;;;;;;;9.27;5.65;;;11.10;99.90;;;;;;4993852;28;20036;-73
2022/11/05 10:40:43;;;;;;;13.30;8.43;;;11.20;99.90;;;;;;4990640;28;20022;-73
2022/11/05 10:43:16;;;;;;;10.45;4.82;;;11.30;99.90;;;;;;4999328;28;20409;-74
2022/11/05 10:45:47;;;;;;;;;;;11.40;99.90;;;;;;4994648;28;20107;-74
2022/11/05 10:48:27;;;;;;;11.40;5.25;;;11.40;99.90;;;;;;4997232;28;20368;-73
2022/11/05 10:50:53;;;;;;;6.57;2.25;;;11.50;99.90;;;;;;4995824;28;20044;-74
2022/11/05 10:53:32;;;;;;;6.00;2.25;;;11.50;99.90;;;;;;4998949;28;20029;-74
2022/11/05 10:55:59;;;;;;;8.88;2.03;;;11.30;99.90;;;;;;4980177;28;20761;-74
2022/11/05 10:58:28;;;;;;;4.32;2.00;;;11.10;99.90;;;;;;4990491;28;20114;-74
2022/11/05 11:00:53;;;;;;;6.75;2.00;;;11.00;99.90;;;;;;4985830;28;20025;-74
2022/11/05 11:03:42;;;;;;;5.03;1.85;;;10.80;99.90;;;;;;4991072;28;20670;-74
2022/11/05 11:06:29;;;;;;;5.18;2.13;;;10.70;99.90;;;;;;4992373;28;20038;-74
2022/11/05 11:08:58;;;;;;;5.80;2.33;;;10.70;99.90;;;;;;4989937;28;20029;-74
2022/11/05 11:11:44;;;;;;;3.67;2.13;;;10.80;99.90;;;;;;4994519;28;20662;-74
2022/11/05 11:14:12;;;;;;;9.80;3.13;;;11.00;99.90;;;;;;4994270;28;20061;-74
2022/11/05 11:16:41;;;;;;;4.30;2.10;;;11.20;99.90;;;;;;4998190;28;20025;-74
2022/11/05 11:19:27;;;;;;;8.05;2.88;;;11.40;99.90;;;;;;4982206;28;20039;-74
2022/11/05 11:22:02;;;;;;;6.65;2.85;;;11.60;99.90;;;;;;4985848;28;20035;-74
2022/11/05 11:24:28;;;;;;;7.40;2.67;;;11.70;99.90;;;;;;5000251;28;20060;-74
2022/11/05 11:27:00;;;;;;;5.20;3.22;;;11.90;99.90;;;;;;4997145;28;20030;-74
2022/11/05 11:29:27;;;;;;;6.32;3.35;;;12.00;99.90;;;;;;4996297;28;20064;-74
2022/11/05 11:31:57;;;;;;;4.95;2.28;;;12.10;99.90;;;;;;5005001;28;20037;-74
2022/11/05 11:34:33;;;;;;;7.55;4.00;;;12.20;99.90;;;;;;5006205;28;20594;-74
2022/11/05 11:37:36;;;;;;;10.80;4.50;;;12.30;99.90;;;;;;4990297;28;20049;-74
2022/11/05 11:40:16;;;;;;;4.25;2.30;;;12.30;99.90;;;;;;4994600;28;20033;-74
2022/11/05 11:42:45;;;;;;;4.22;2.38;;;12.10;99.90;;;;;;5000303;28;20026;-74
2022/11/05 11:45:42;;;;;;;4.85;2.08;;;12.00;99.90;;;;;;4988861;28;20033;-74
2022/11/05 11:48:13;;;;;;;6.85;2.53;;;;;;;;;;4998180;28;20329;-74
2022/11/05 11:50:46;;;;;;;7.55;2.30;;;12.10;99.90;;;;;;4993653;28;20033;-74
2022/11/05 11:53:21;;;;;;;8.27;3.22;;;;;;;;;;4980229;28;20629;-74
2022/11/05 11:56:24;;;;;;;6.18;2.88;;;12.20;99.90;;;;;;4986571;28;20022;-74
2022/11/05 11:58:51;;;;;;;4.93;2.78;;;12.40;99.90;;;;;;4990929;28;20137;-74
2022/11/05 12:01:50;;;;;;;6.82;3.20;;;12.50;99.90;;;;;;4986466;28;20029;-74
2022/11/05 12:04:24;;;;;;;6.78;2.80;;;12.30;99.90;;;;;;4985304;28;20083;-74
2022/11/05 12:07:02;;;;;;;6.60;3.47;;;12.30;99.90;;;;;;4993686;28;20041;-74
2022/11/05 12:09:30;;;;;;;7.05;2.53;;;12.50;99.90;;;;;;4988871;28;20233;-74
2022/11/05 12:12:05;;;;;;;5.00;2.70;;;12.60;99.90;;;;;;4991434;28;20076;-74
2022/11/05 12:14:52;;;;;;;5.90;2.40;;;12.80;99.90;;;;;;4990360;28;20030;-74
2022/11/05 12:17:36;;;;;;;6.25;2.58;;;12.90;99.90;;;;;;4992071;28;20022;-74
2022/11/05 12:20:13;;;;;;;4.00;3.03;;;13.00;99.90;;;;;;4989514;28;20025;-74
2022/11/05 12:23:10;;;;;;;7.53;3.70;;;13.10;99.90;;;;;;5015115;28;20098;-74
2022/11/05 12:25:52;;;;;;;8.23;3.90;;;13.10;99.90;;;;;;4989035;28;20041;-74
2022/11/05 12:28:20;;;;;;;8.40;4.88;;;13.10;99.90;;;;;;4997504;28;20148;-75
2022/11/05 12:31:00;;;;;;;11.18;5.30;;;13.10;99.90;;;;;;4985913;28;20153;-74
2022/11/05 12:33:53;;;;;;;12.43;7.38;;;13.20;99.90;;;;;;4987992;28;20148;-74
2022/11/05 12:36:57;;;;;;;10.95;5.47;;;13.10;99.90;;;;;;4988406;28;20139;-74
2022/11/05 12:39:35;;;;;;;10.45;5.03;;;;;;;;;;5006929;28;20679;-74
2022/11/05 12:42:04;;;;;;;8.98;5.45;;;13.00;99.90;;;;;;4996637;28;20060;-74
2022/11/05 12:44:40;;;;;;;8.90;5.38;;;13.00;99.90;;;;;;4989461;28;23566;-74
2022/11/05 12:47:17;;;;;;;8.93;3.67;;;13.00;99.90;;;;;;4991817;28;21593;-74
2022/11/05 12:49:46;;;;;;;10.68;6.40;;;13.10;99.90;;;;;;4994895;28;20409;-74
2022/11/05 12:52:11;;;;;;;7.80;4.55;;;13.10;99.90;;;;;;4986175;28;20594;-74
2022/11/05 12:55:18;;;;;;;7.03;3.65;;;13.20;99.90;;;;;;4987359;28;20033;-74
2022/11/05 12:57:47;;;;;;;9.38;4.75;;;13.30;99.90;;;;;;4989159;28;20632;-74
2022/11/05 13:00:20;;;;;;;13.68;5.85;;;13.20;99.90;;;;;;4999291;28;20615;-75
2022/11/05 13:03:07;;;;;;;12.38;5.53;;;13.20;99.90;;;;;;4991918;28;20047;-74
2022/11/05 13:05:39;;;;;;;8.05;4.05;;;13.20;99.90;;;;;;4989052;28;20029;-74
2022/11/05 13:08:17;;;;;;;7.63;3.97;;;13.20;99.90;;;;;;4993047;28;21906;-74
2022/11/05 13:10:58;;;;;;;7.10;3.90;;;13.20;99.90;;;;;;4987055;28;20060;-75
2022/11/05 13:13:38;;;;;;;11.55;4.63;;;13.30;99.90;;;;;;4994326;28;20835;-75
2022/11/05 13:16:19;;;;;;;10.73;4.70;;;13.20;99.90;;;;;;4995058;28;20160;-74
2022/11/05 13:18:51;;;;;;;10.20;3.88;;;13.10;99.90;;;;;;4992664;28;20037;-75
2022/11/05 13:21:22;;;;;;;10.05;5.28;;;12.90;99.90;;;;;;4995490;28;20373;-74
2022/11/05 13:23:58;;;;;;;8.45;4.03;;;12.70;99.90;;;;;;4991402;28;20604;-74
2022/11/05 13:26:44;;;;;;;10.25;3.92;;;12.50;99.90;;;;;;4993065;28;20092;-75
2022/11/05 13:29:23;;;;;;;9.70;4.72;;;12.30;99.90;;;;;;4997428;28;20042;-75
2022/11/05 13:32:07;;;;;;;9.57;5.13;;;12.20;99.90;;;;;;4991229;28;20038;-75
2022/11/05 13:34:32;;;;;;;8.75;4.15;;;12.30;99.90;;;;;;4995050;28;20033;-74
2022/11/05 13:39:52;;;;;;;6.50;3.72;;;12.20;99.90;;;;;;4995565;28;20176;-75
2022/11/05 13:42:37;;;;;;;9.85;3.90;;;11.90;99.90;;;;;;4997302;28;20159;-75
2022/11/05 13:45:12;;;;;;;7.50;3.42;;;11.80;99.90;;;;;;4989850;28;20117;-75